Time;durP1;ratioP1;P1;durP2;ratioP2;P2;SDS_P1;SDS_P2;PMS_P1;PMS_P2;Temp;Humidity;BMP_temperature;BMP_pressure;BME280_temperature;BME280_humidity;BME280_pressure;Samples;Min_cycle;Max_cycle;Signal;HPM_P1;HPM_P2
2021/09/29 12:44:13;;;;;;;5.47;3.10;;;10.80;45.30;;;;;;3842192;37;20090;-69
2021/09/29 12:46:40;;;;;;;;;;;10.90;46.70;;;;;;4394888;32;20206;-65
2021/09/29 12:49:13;;;;;;;5.95;3.03;;;11.20;46.80;;;;;;4394490;32;20000;-65
2021/09/29 12:51:46;;;;;;;7.70;2.45;;;11.30;45.70;;;;;;4385913;32;21004;-67
2021/09/29 12:54:18;;;;;;;4.35;2.40;;;11.20;44.60;;;;;;4392583;32;20072;-65
2021/09/29 12:56:44;;;;;;;5.55;2.50;;;10.80;45.20;;;;;;4395989;32;20168;-65
2021/09/29 12:59:11;;;;;;;6.03;3.58;;;10.60;46.60;;;;;;4405773;32;20188;-69
2021/09/29 13:01:37;;;;;;;2.85;2.47;;;10.60;47.40;;;;;;4383468;32;20085;-67
2021/09/29 13:04:04;;;;;;;5.47;2.40;;;10.20;47.30;;;;;;4381126;32;20124;-69
2021/09/29 13:06:30;;;;;;;5.90;3.10;;;10.40;47.80;;;;;;4381824;32;20185;-65
2021/09/29 13:08:56;;;;;;;7.47;3.20;;;10.40;47.50;;;;;;4372688;32;20182;-72
2021/09/29 13:11:23;;;;;;;6.32;2.78;;;10.30;47.00;;;;;;4406601;32;20129;-71
2021/09/29 13:13:49;;;;;;;5.22;2.83;;;10.10;48.10;;;;;;4402058;32;20496;-64
2021/09/29 13:16:15;;;;;;;5.35;3.10;;;10.00;47.70;;;;;;4403649;32;20066;-65
2021/09/29 13:18:54;;;;;;;3.72;2.80;;;10.10;48.90;;;;;;4385147;32;20169;-66
2021/09/29 13:21:57;;;;;;;3.90;2.97;;;10.00;49.30;;;;;;4393954;32;20070;-67
2021/09/29 13:24:21;;;;;;;6.10;3.37;;;9.90;49.00;;;;;;4397257;32;20574;-68
2021/09/29 13:37:24;;;;;;;3.70;2.60;;;9.90;51.00;;;;;;4374403;32;20076;-63
2021/09/29 13:39:52;;;;;;;4.85;3.05;;;9.80;50.40;;;;;;4386086;32;20078;-69
2021/09/29 13:42:19;;;;;;;3.90;2.53;;;9.80;50.60;;;;;;4379206;32;20065;-68
2021/09/29 13:44:45;;;;;;;8.15;2.90;;;9.70;50.20;;;;;;4373072;32;20481;-64
2021/09/29 13:47:12;;;;;;;4.05;2.58;;;9.70;50.80;;;;;;4370263;32;20077;-63
2021/09/29 13:49:39;;;;;;;4.03;2.58;;;9.80;51.50;;;;;;4357980;32;20146;-64
2021/09/29 13:52:11;;;;;;;5.15;2.85;;;9.80;53.70;;;;;;4358869;32;20570;-71
2021/09/29 13:54:37;;;;;;;4.53;2.58;;;9.70;52.30;;;;;;4379951;32;20122;-66
2021/09/29 13:57:14;;;;;;;6.07;2.83;;;9.90;52.50;;;;;;4364727;32;20149;-65
2021/09/29 14:02:40;;;;;;;4.50;2.62;;;9.80;51.10;;;;;;4379832;32;20085;-72
2021/09/29 14:29:54;;;;;;;7.70;3.70;;;9.30;52.00;;;;;;4380901;32;20078;-65
2021/09/29 14:32:24;;;;;;;10.52;3.92;;;9.30;53.80;;;;;;4370740;32;20138;-64
2021/09/29 14:34:51;;;;;;;6.65;3.83;;;9.20;54.10;;;;;;4370177;32;20110;-63
2021/09/29 14:37:17;;;;;;;7.82;4.05;;;9.20;55.10;;;;;;4379856;32;20078;-67
2021/09/29 14:39:43;;;;;;;5.20;3.70;;;9.20;53.50;;;;;;4355101;32;20078;-65
2021/09/29 14:42:10;;;;;;;8.18;3.97;;;9.20;52.60;;;;;;4371650;32;20113;-68
2021/09/29 14:44:37;;;;;;;9.93;4.80;;;9.20;54.20;;;;;;4362715;32;20089;-63
2021/09/29 14:47:10;;;;;;;9.15;3.78;;;9.10;54.70;;;;;;4352666;32;20221;-67
2021/09/29 14:49:44;;;;;;;7.50;4.68;;;9.00;56.10;;;;;;4352599;32;20575;-66
2021/09/29 14:52:16;;;;;;;11.73;4.57;;;9.00;55.30;;;;;;4371246;32;20115;-65
2021/09/29 14:54:43;;;;;;;8.35;3.90;;;9.00;57.30;;;;;;4359203;32;20069;-67
2021/09/29 14:57:10;;;;;;;9.48;4.65;;;9.00;55.80;;;;;;4346999;32;20105;-71
2021/09/29 14:59:46;;;;;;;6.25;3.78;;;8.90;56.30;;;;;;4361347;32;20094;-64
2021/09/29 15:02:16;;;;;;;6.45;4.12;;;8.90;57.60;;;;;;4347268;32;20116;-66
2021/09/29 15:04:46;;;;;;;9.55;4.90;;;8.80;57.60;;;;;;4354656;32;20851;-64
2021/09/29 15:07:13;;;;;;;9.52;4.30;;;8.70;58.90;;;;;;4363942;32;20167;-66
2021/09/29 15:09:39;;;;;;;10.10;4.18;;;8.60;61.00;;;;;;4345757;32;20070;-65
2021/09/29 15:12:07;;;;;;;6.70;4.18;;;8.60;59.50;;;;;;4381898;32;20079;-68
2021/09/29 15:47:08;;;;;;;12.20;5.07;;;8.20;64.10;;;;;;4367564;32;20090;-64
2021/09/29 15:52:35;;;;;;;9.20;5.12;;;7.90;70.10;;;;;;4368305;32;20101;-65
2021/09/29 16:02:13;;;;;;;10.18;5.10;;;7.80;74.10;;;;;;4374705;32;20077;-65
2021/09/29 16:07:38;;;;;;;12.85;5.50;;;7.90;70.80;;;;;;4364892;32;20501;-64
2021/09/29 16:30:44;;;;;;;11.43;6.28;;;7.90;76.20;;;;;;4364319;32;20437;-65
2021/09/29 16:35:49;;;;;;;12.40;6.93;;;7.80;79.10;;;;;;4362235;32;20462;-65
2021/09/29 16:38:16;;;;;;;22.80;8.00;;;7.90;78.80;;;;;;4353330;32;20195;-66
2021/09/29 16:40:42;;;;;;;15.30;7.40;;;8.00;78.10;;;;;;4362675;32;20520;-65
2021/09/29 16:43:08;;;;;;;22.17;8.65;;;8.00;79.80;;;;;;4349832;32;20090;-65
2021/09/29 16:45:35;;;;;;;20.02;9.50;;;7.90;82.30;;;;;;4350078;32;20085;-65
2021/09/29 16:48:01;;;;;;;20.25;9.40;;;7.80;83.70;;;;;;4375097;32;20089;-66
2021/09/29 16:50:43;;;;;;;20.62;10.05;;;7.90;85.20;;;;;;4350248;32;20085;-65
2021/09/29 16:53:11;;;;;;;19.35;8.60;;;7.90;85.10;;;;;;4375434;32;20445;-64
2021/09/29 16:55:40;;;;;;;20.88;8.85;;;8.00;86.50;;;;;;4375189;32;20078;-65
2021/09/29 16:58:16;;;;;;;23.17;8.65;;;8.00;83.80;;;;;;4374941;32;20105;-65
2021/09/29 17:00:50;;;;;;;18.17;9.02;;;8.00;86.00;;;;;;4375000;32;20090;-67
2021/09/29 17:03:17;;;;;;;18.42;8.82;;;8.00;84.90;;;;;;4374783;32;20078;-66
2021/09/29 17:05:43;;;;;;;18.92;9.27;;;8.00;84.80;;;;;;4362182;32;20079;-65
2021/09/29 17:08:10;;;;;;;17.50;8.98;;;7.90;83.80;;;;;;4374786;32;20078;-65
2021/09/29 17:10:37;;;;;;;21.40;9.57;;;7.90;81.20;;;;;;4338043;32;20074;-65
2021/09/29 17:13:05;;;;;;;17.25;8.20;;;7.80;82.60;;;;;;4350252;32;20081;-65
2021/09/29 17:15:34;;;;;;;17.15;8.70;;;7.80;84.40;;;;;;4363233;32;20171;-66
2021/09/29 17:18:01;;;;;;;24.08;9.13;;;7.70;82.00;;;;;;4350870;32;20066;-65
2021/09/29 17:20:27;;;;;;;16.92;9.25;;;7.70;82.60;;;;;;4375349;32;20084;-66
2021/09/29 17:22:58;;;;;;;16.75;8.38;;;7.70;85.20;;;;;;4337932;32;20074;-66
2021/09/29 17:25:31;;;;;;;20.17;9.27;;;7.60;86.40;;;;;;4338610;32;20170;-65
2021/09/29 17:27:57;;;;;;;19.50;9.60;;;7.60;86.60;;;;;;4374806;32;20158;-65
2021/09/29 17:30:30;;;;;;;17.87;9.30;;;7.60;87.70;;;;;;4352479;32;20082;-65
2021/09/29 17:33:23;;;;;;;19.80;8.90;;;7.60;86.90;;;;;;4341669;32;20081;-64
2021/09/29 17:54:39;;;;;;;17.90;8.70;;;7.50;90.90;;;;;;4377147;32;20063;-64
2021/09/29 17:57:05;;;;;;;14.50;7.85;;;7.50;90.30;;;;;;4377355;32;20071;-64
2021/09/29 17:59:33;;;;;;;18.23;8.20;;;7.60;87.60;;;;;;4377279;32;20085;-65
2021/09/29 18:02:06;;;;;;;19.60;9.15;;;7.70;90.00;;;;;;4378656;32;20449;-65
2021/09/29 18:04:32;;;;;;;22.15;8.88;;;7.50;90.80;;;;;;4377064;32;20137;-65
2021/09/29 18:09:37;;;;;;;15.80;8.18;;;7.50;87.90;;;;;;4395045;32;20068;-66
2021/09/29 18:12:05;;;;;;;15.93;8.20;;;7.70;83.40;;;;;;4348910;32;20070;-65
2021/09/29 18:14:32;;;;;;;17.62;8.68;;;7.60;88.00;;;;;;4340142;32;20535;-65
2021/09/29 18:16:59;;;;;;;14.50;7.70;;;7.50;90.00;;;;;;4352162;32;20078;-65
2021/09/29 18:19:26;;;;;;;15.02;7.97;;;7.50;92.10;;;;;;4351942;32;20085;-68
2021/09/29 18:21:52;;;;;;;15.85;7.78;;;7.50;91.10;;;;;;4376676;32;20161;-65
2021/09/29 18:24:19;;;;;;;17.10;8.25;;;7.50;89.50;;;;;;4352117;32;20174;-65
2021/09/29 18:26:51;;;;;;;17.50;8.68;;;7.50;91.60;;;;;;4352439;32;20081;-66
2021/09/29 18:29:19;;;;;;;15.23;8.75;;;7.40;92.20;;;;;;4352607;32;20519;-65
2021/09/29 18:31:47;;;;;;;18.42;9.10;;;7.40;94.80;;;;;;4340019;32;20074;-64
2021/09/29 18:34:14;;;;;;;15.98;8.40;;;7.40;95.30;;;;;;4363851;32;20078;-65
2021/09/29 18:36:42;;;;;;;18.87;8.48;;;7.40;94.10;;;;;;4352079;32;20148;-65
2021/09/29 18:39:08;;;;;;;16.98;8.30;;;7.40;92.80;;;;;;4377343;32;20501;-64
2021/09/29 18:41:36;;;;;;;15.95;8.57;;;7.40;90.40;;;;;;4364394;32;20501;-66
2021/09/29 18:44:05;;;;;;;14.87;8.45;;;7.40;84.50;;;;;;4352119;32;20112;-65
2021/09/29 18:46:33;;;;;;;15.25;8.50;;;7.30;94.40;;;;;;4352268;32;20157;-65
2021/09/29 18:49:15;;;;;;;15.75;7.62;;;7.20;94.50;;;;;;4364019;32;20097;-66
2021/09/29 18:51:45;;;;;;;13.32;6.80;;;7.20;90.80;;;;;;4352725;32;20158;-65
2021/09/29 18:54:20;;;;;;;18.33;8.77;;;7.20;95.10;;;;;;4352873;32;20073;-64
2021/09/29 19:07:43;;;;;;;10.57;7.00;;;7.20;82.30;;;;;;4366282;32;20074;-65
2021/09/29 19:10:11;;;;;;;14.73;7.50;;;7.20;90.80;;;;;;4340170;32;20508;-65
2021/09/29 19:12:37;;;;;;;12.82;6.87;;;7.20;95.50;;;;;;4376384;32;20084;-67
2021/09/29 19:15:05;;;;;;;13.05;7.93;;;7.00;96.60;;;;;;4351756;32;20062;-66
2021/09/29 19:17:34;;;;;;;15.68;7.65;;;7.00;99.10;;;;;;4364271;32;20063;-64
2021/09/29 19:20:01;;;;;;;17.37;8.55;;;6.90;99.90;;;;;;4338642;32;20089;-66
2021/09/29 19:22:29;;;;;;;11.93;7.25;;;7.00;99.90;;;;;;4326207;32;20089;-65
2021/09/29 19:24:55;;;;;;;13.23;7.15;;;7.20;99.20;;;;;;4363701;32;20166;-65
2021/09/29 19:27:23;;;;;;;14.25;6.53;;;7.20;96.50;;;;;;4363879;32;20061;-65
2021/09/29 19:29:49;;;;;;;13.55;7.28;;;7.20;97.90;;;;;;4350932;32;20516;-66
2021/09/29 19:32:17;;;;;;;17.05;7.60;;;7.00;99.80;;;;;;4339092;32;20085;-66
2021/09/29 19:34:43;;;;;;;19.30;7.97;;;7.00;96.20;;;;;;4351015;32;20086;-65
2021/09/29 19:37:10;;;;;;;12.73;7.10;;;7.00;96.00;;;;;;4363341;32;20082;-66
2021/09/29 19:39:36;;;;;;;15.15;7.45;;;7.10;93.70;;;;;;4351523;32;20086;-65
2021/09/29 19:42:03;;;;;;;13.55;5.97;;;7.20;93.40;;;;;;4338220;32;20276;-66
2021/09/29 19:44:32;;;;;;;13.10;7.28;;;7.20;94.40;;;;;;4350831;32;20058;-65
2021/09/29 19:47:04;;;;;;;12.57;7.30;;;7.30;87.90;;;;;;4351001;32;20082;-65
2021/09/29 20:02:50;;;;;;;12.65;7.18;;;7.30;91.70;;;;;;4375295;32;20505;-65
2021/09/29 20:08:02;;;;;;;11.07;7.10;;;7.20;91.50;;;;;;4354406;32;20526;-66
2021/09/29 20:10:29;;;;;;;13.57;7.62;;;7.20;93.10;;;;;;4338074;32;20061;-66
2021/09/29 20:12:55;;;;;;;11.77;7.32;;;7.20;94.10;;;;;;4363244;32;20100;-65
2021/09/29 20:15:27;;;;;;;14.25;6.95;;;7.30;93.40;;;;;;4350588;32;20086;-66
2021/09/29 20:17:56;;;;;;;16.23;7.65;;;7.20;94.50;;;;;;4338678;32;20066;-65
2021/09/29 20:20:24;;;;;;;16.85;7.57;;;7.10;94.40;;;;;;4363012;32;20080;-65
2021/09/29 20:22:53;;;;;;;14.60;8.70;;;7.20;96.30;;;;;;4338096;32;20106;-65
2021/09/29 20:25:22;;;;;;;16.23;7.97;;;7.20;96.80;;;;;;4350793;32;20070;-66
2021/09/29 20:27:49;;;;;;;14.35;7.18;;;7.20;95.10;;;;;;4337908;32;20078;-66
2021/09/29 20:30:16;;;;;;;16.70;8.55;;;7.10;96.50;;;;;;4350630;32;20496;-65
2021/09/29 20:32:44;;;;;;;21.37;9.18;;;7.20;96.20;;;;;;4350635;32;20078;-65
2021/09/29 20:35:27;;;;;;;18.90;8.40;;;7.20;96.20;;;;;;4338377;32;20175;-66
2021/09/29 20:43:23;;;;;;;31.52;13.32;;;7.10;87.70;;;;;;4364823;32;20097;-66
2021/09/29 20:45:55;;;;;;;25.02;11.57;;;7.10;91.60;;;;;;4362370;32;20163;-67
2021/09/29 20:48:21;;;;;;;25.83;12.20;;;7.20;91.60;;;;;;4375377;32;20094;-65
2021/09/29 20:50:52;;;;;;;28.58;12.02;;;7.30;93.80;;;;;;4374876;32;20074;-65
2021/09/29 20:53:21;;;;;;;25.75;11.55;;;7.20;92.50;;;;;;4375371;32;20165;-66
2021/09/29 20:55:48;;;;;;;23.38;11.38;;;7.20;94.80;;;;;;4376087;32;20073;-66
2021/09/29 20:58:14;;;;;;;26.25;12.98;;;7.20;95.20;;;;;;4384094;32;20079;-65
2021/09/29 21:00:42;;;;;;;25.98;12.60;;;7.20;95.30;;;;;;4380166;32;20082;-65
2021/09/29 21:03:09;;;;;;;26.75;11.65;;;7.10;97.00;;;;;;4362929;32;20062;-64
2021/09/29 21:05:36;;;;;;;17.23;10.20;;;7.20;96.80;;;;;;4377975;32;20074;-65
2021/09/29 21:08:05;;;;;;;19.73;10.27;;;7.30;82.40;;;;;;4365220;32;20167;-66
2021/09/29 21:10:34;;;;;;;21.92;11.95;;;7.30;91.20;;;;;;4353230;32;20074;-65
2021/09/29 21:13:20;;;;;;;15.18;8.43;;;7.20;89.30;;;;;;4377696;32;20085;-66
2021/09/29 21:16:09;;;;;;;13.57;8.35;;;7.30;79.40;;;;;;4344698;32;20081;-66
2021/09/29 21:18:35;;;;;;;15.77;7.93;;;7.20;76.80;;;;;;4377905;32;20089;-65
2021/09/29 21:21:01;;;;;;;17.35;8.32;;;7.40;80.30;;;;;;4340475;32;20108;-64
2021/09/29 21:23:27;;;;;;;15.55;8.30;;;7.30;80.90;;;;;;4378828;32;20159;-66
2021/09/29 21:25:54;;;;;;;15.70;8.23;;;7.30;77.60;;;;;;4365111;32;20070;-66
2021/09/29 21:28:20;;;;;;;15.70;8.63;;;7.30;79.40;;;;;;4364966;32;20089;-65
2021/09/29 21:30:47;;;;;;;20.73;8.02;;;7.30;82.60;;;;;;4365496;32;20189;-66
2021/09/29 21:33:18;;;;;;;12.55;7.87;;;7.30;79.80;;;;;;4340406;32;20068;-66
2021/09/29 21:35:44;;;;;;;15.93;7.85;;;7.40;75.80;;;;;;4365473;32;20444;-66
2021/09/29 21:49:16;;;;;;;13.62;7.60;;;7.40;74.00;;;;;;4365530;32;20081;-66
2021/09/29 22:13:54;;;;;;;10.40;5.57;;;7.20;88.60;;;;;;4377736;32;20160;-66
2021/09/29 22:19:32;;;;;;;15.52;6.72;;;7.30;91.60;;;;;;4376878;32;20593;-65
2021/09/29 22:22:19;;;;;;;9.40;5.10;;;7.20;90.50;;;;;;4367324;32;20473;-65
2021/09/29 22:33:36;;;;;;;10.68;4.75;;;7.20;94.10;;;;;;3857309;37;20078;-66
2021/09/29 22:55:44;;;;;;;7.80;4.40;;;6.90;93.10;;;;;;4406944;32;20076;-66
2021/09/29 23:05:54;;;;;;;5.45;3.83;;;6.90;97.40;;;;;;4418122;32;20058;-65
2021/09/29 23:08:37;;;;;;;7.12;4.30;;;6.80;97.90;;;;;;4405866;32;20074;-65
2021/09/29 23:11:10;;;;;;;6.68;3.95;;;6.80;99.90;;;;;;4383669;32;20087;-65
2021/09/29 23:32:45;;;;;;;6.90;4.62;;;6.60;99.90;;;;;;4391327;32;20531;-65
2021/09/29 23:35:15;;;;;;;6.90;4.12;;;6.40;99.90;;;;;;4377672;32;20070;-65
2021/09/29 23:37:45;;;;;;;7.18;3.87;;;6.50;99.90;;;;;;4378355;32;20172;-66
2021/09/29 23:40:17;;;;;;;9.07;4.80;;;6.30;99.90;;;;;;4394126;32;20093;-66
2021/09/29 23:42:43;;;;;;;6.50;3.97;;;6.20;99.90;;;;;;4395151;32;20086;-65
2021/09/29 23:45:10;;;;;;;6.22;4.00;;;6.30;99.90;;;;;;4415000;32;20101;-65
2021/09/29 23:47:37;;;;;;;8.57;4.07;;;6.30;99.90;;;;;;4386859;32;20085;-66
2021/09/29 23:50:10;;;;;;;5.93;3.97;;;6.20;99.90;;;;;;4367267;32;20167;-66
2021/09/29 23:52:37;;;;;;;7.47;4.07;;;6.20;99.90;;;;;;4379817;32;20103;-65
2021/09/29 23:55:06;;;;;;;6.82;4.20;;;6.20;99.90;;;;;;4367241;32;20088;-66
2021/09/29 23:57:32;;;;;;;6.47;3.92;;;6.20;99.90;;;;;;4379490;32;20155;-66
